Pinon, New Mexico
Current Conditions -  °F | °C
As of 11:58 AM on Monday 20 Oct 2014 (Local Time) from KHMN Reporting Station
Clear Clear  
Wind Chill: 65°   Ceiling: Unl
Heat Index: 65°   Visibility: 10mi
Dew Point: 57°   Wind: 2mph
Humidity: 74%   Direction: NA
Pressure: 30.12"   Gusts: NA
Location:  32.62°N, 105.39°W
Report Text: KHMN 201758Z AUTO VRB02KT 10SM CLR 18/14 A3012 RMK AO2 SLP148 T01840137 10186 20118 50002 $
Loading
Personal Weather Stations






























Interactive Weather Map
Tropical Storm Tracking
New forecast layout! Learn more

10-Day Weather Forecast

Advertisements
Track Severe Weather on mobile